sensor_id;sensor_type;location;lat;lon;timestamp;P1;durP1;ratioP1;P2;durP2;ratioP2
49858;SDS011;35756;52.346;13.622;2022-10-29T00:02:04;15.85;;;5.55;;
49858;SDS011;35756;52.346;13.622;2022-10-29T00:43:22;15.93;;;4.95;;
49858;SDS011;35756;52.346;13.622;2022-10-29T00:57:15;10.02;;;6.82;;
49858;SDS011;35756;52.346;13.622;2022-10-29T00:59:45;9.88;;;5.80;;
49858;SDS011;35756;52.346;13.622;2022-10-29T01:37:02;11.63;;;4.55;;
49858;SDS011;35756;52.346;13.622;2022-10-29T01:48:21;10.38;;;4.75;;
49858;SDS011;35756;52.346;13.622;2022-10-29T01:51:55;8.93;;;4.80;;
49858;SDS011;35756;52.346;13.622;2022-10-29T01:57:47;11.50;;;4.55;;
49858;SDS011;35756;52.346;13.622;2022-10-29T02:01:05;9.57;;;4.13;;
49858;SDS011;35756;52.346;13.622;2022-10-29T14:12:45;38.20;;;35.20;;
49858;SDS011;35756;52.346;13.622;2022-10-29T14:22:27;36.38;;;33.35;;
49858;SDS011;35756;52.346;13.622;2022-10-29T20:35:03;73.45;;;47.80;;
49858;SDS011;35756;52.346;13.622;2022-10-29T20:37:28;70.13;;;45.22;;
49858;SDS011;35756;52.346;13.622;2022-10-29T20:39:54;68.90;;;46.72;;
49858;SDS011;35756;52.346;13.622;2022-10-29T20:42:19;67.50;;;46.35;;
49858;SDS011;35756;52.346;13.622;2022-10-29T20:44:44;72.13;;;45.85;;
49858;SDS011;35756;52.346;13.622;2022-10-29T20:47:10;69.03;;;44.35;;
49858;SDS011;35756;52.346;13.622;2022-10-29T20:49:35;63.45;;;42.53;;
49858;SDS011;35756;52.346;13.622;2022-10-29T20:52:00;73.38;;;44.20;;
49858;SDS011;35756;52.346;13.622;2022-10-29T20:54:27;62.50;;;40.50;;
49858;SDS011;35756;52.346;13.622;2022-10-29T20:56:52;58.75;;;37.38;;
49858;SDS011;35756;52.346;13.622;2022-10-29T20:59:17;59.88;;;39.15;;
49858;SDS011;35756;52.346;13.622;2022-10-29T21:01:43;55.35;;;36.00;;
49858;SDS011;35756;52.346;13.622;2022-10-29T21:04:08;56.38;;;36.92;;
49858;SDS011;35756;52.346;13.622;2022-10-29T21:06:33;52.47;;;35.95;;
49858;SDS011;35756;52.346;13.622;2022-10-29T21:08:59;57.58;;;35.20;;
49858;SDS011;35756;52.346;13.622;2022-10-29T21:11:24;50.95;;;33.63;;
49858;SDS011;35756;52.346;13.622;2022-10-29T21:13:49;53.92;;;34.08;;
49858;SDS011;35756;52.346;13.622;2022-10-29T21:16:19;53.08;;;34.47;;
49858;SDS011;35756;52.346;13.622;2022-10-29T21:18:46;53.13;;;33.03;;
49858;SDS011;35756;52.346;13.622;2022-10-29T21:21:14;52.30;;;35.75;;
49858;SDS011;35756;52.346;13.622;2022-10-29T21:23:39;51.97;;;34.72;;
49858;SDS011;35756;52.346;13.622;2022-10-29T21:26:05;53.97;;;35.20;;
49858;SDS011;35756;52.346;13.622;2022-10-29T21:28:31;52.75;;;33.83;;
49858;SDS011;35756;52.346;13.622;2022-10-29T21:30:57;55.35;;;35.83;;
49858;SDS011;35756;52.346;13.622;2022-10-29T21:33:22;43.22;;;31.27;;
49858;SDS011;35756;52.346;13.622;2022-10-29T21:35:48;47.63;;;31.42;;
49858;SDS011;35756;52.346;13.622;2022-10-29T21:38:14;45.38;;;31.13;;
49858;SDS011;35756;52.346;13.622;2022-10-29T21:40:39;46.10;;;32.08;;
49858;SDS011;35756;52.346;13.622;2022-10-29T21:43:05;53.80;;;32.70;;
49858;SDS011;35756;52.346;13.622;2022-10-29T21:45:30;48.88;;;31.08;;
49858;SDS011;35756;52.346;13.622;2022-10-29T21:47:55;56.85;;;32.10;;
49858;SDS011;35756;52.346;13.622;2022-10-29T21:50:20;46.40;;;30.35;;
49858;SDS011;35756;52.346;13.622;2022-10-29T21:52:46;43.67;;;29.23;;
49858;SDS011;35756;52.346;13.622;2022-10-29T21:55:11;48.67;;;31.85;;
49858;SDS011;35756;52.346;13.622;2022-10-29T21:57:36;43.03;;;30.40;;
49858;SDS011;35756;52.346;13.622;2022-10-29T22:00:03;53.17;;;35.20;;
49858;SDS011;35756;52.346;13.622;2022-10-29T22:02:30;61.13;;;35.92;;
49858;SDS011;35756;52.346;13.622;2022-10-29T22:04:55;49.60;;;34.80;;
49858;SDS011;35756;52.346;13.622;2022-10-29T22:07:21;54.97;;;33.15;;
49858;SDS011;35756;52.346;13.622;2022-10-29T22:09:46;46.63;;;32.80;;
49858;SDS011;35756;52.346;13.622;2022-10-29T22:12:11;53.53;;;35.20;;
49858;SDS011;35756;52.346;13.622;2022-10-29T22:14:36;53.45;;;37.20;;
49858;SDS011;35756;52.346;13.622;2022-10-29T22:17:02;52.47;;;35.33;;
49858;SDS011;35756;52.346;13.622;2022-10-29T22:19:27;70.47;;;41.53;;
49858;SDS011;35756;52.346;13.622;2022-10-29T22:21:53;50.97;;;34.40;;
49858;SDS011;35756;52.346;13.622;2022-10-29T22:24:19;49.13;;;34.20;;
49858;SDS011;35756;52.346;13.622;2022-10-29T22:26:44;48.40;;;35.08;;
49858;SDS011;35756;52.346;13.622;2022-10-29T22:29:09;54.75;;;37.58;;
49858;SDS011;35756;52.346;13.622;2022-10-29T22:31:34;56.70;;;37.22;;
49858;SDS011;35756;52.346;13.622;2022-10-29T22:34:00;54.60;;;35.97;;
49858;SDS011;35756;52.346;13.622;2022-10-29T22:36:25;51.72;;;34.83;;
49858;SDS011;35756;52.346;13.622;2022-10-29T22:38:52;52.75;;;35.22;;
49858;SDS011;35756;52.346;13.622;2022-10-29T22:41:18;49.63;;;32.63;;
49858;SDS011;35756;52.346;13.622;2022-10-29T22:43:43;46.65;;;31.15;;
49858;SDS011;35756;52.346;13.622;2022-10-29T22:46:09;43.95;;;29.38;;
49858;SDS011;35756;52.346;13.622;2022-10-29T22:48:36;44.83;;;27.35;;
49858;SDS011;35756;52.346;13.622;2022-10-29T22:51:06;43.25;;;29.23;;
49858;SDS011;35756;52.346;13.622;2022-10-29T22:53:33;42.15;;;28.23;;
49858;SDS011;35756;52.346;13.622;2022-10-29T22:55:58;44.53;;;28.58;;
49858;SDS011;35756;52.346;13.622;2022-10-29T22:58:24;40.33;;;26.15;;
49858;SDS011;35756;52.346;13.622;2022-10-29T23:00:59;39.17;;;27.48;;
49858;SDS011;35756;52.346;13.622;2022-10-29T23:03:25;39.67;;;25.65;;
49858;SDS011;35756;52.346;13.622;2022-10-29T23:05:57;50.50;;;26.58;;
49858;SDS011;35756;52.346;13.622;2022-10-29T23:08:23;38.25;;;26.48;;
49858;SDS011;35756;52.346;13.622;2022-10-29T23:10:48;39.13;;;24.58;;
49858;SDS011;35756;52.346;13.622;2022-10-29T23:13:13;37.72;;;23.08;;
49858;SDS011;35756;52.346;13.622;2022-10-29T23:15:39;36.17;;;23.42;;
49858;SDS011;35756;52.346;13.622;2022-10-29T23:18:04;32.33;;;21.73;;
49858;SDS011;35756;52.346;13.622;2022-10-29T23:20:29;36.45;;;22.10;;
49858;SDS011;35756;52.346;13.622;2022-10-29T23:22:55;36.33;;;22.90;;
49858;SDS011;35756;52.346;13.622;2022-10-29T23:25:20;43.83;;;24.63;;
49858;SDS011;35756;52.346;13.622;2022-10-29T23:27:45;30.17;;;20.98;;
49858;SDS011;35756;52.346;13.622;2022-10-29T23:30:11;33.25;;;21.95;;
49858;SDS011;35756;52.346;13.622;2022-10-29T23:32:36;34.80;;;22.05;;
49858;SDS011;35756;52.346;13.622;2022-10-29T23:35:01;32.92;;;20.77;;
49858;SDS011;35756;52.346;13.622;2022-10-29T23:37:27;33.25;;;20.92;;
49858;SDS011;35756;52.346;13.622;2022-10-29T23:39:52;32.97;;;21.63;;
49858;SDS011;35756;52.346;13.622;2022-10-29T23:42:17;33.65;;;20.25;;
49858;SDS011;35756;52.346;13.622;2022-10-29T23:44:42;32.10;;;20.25;;
49858;SDS011;35756;52.346;13.622;2022-10-29T23:47:08;34.55;;;20.05;;
49858;SDS011;35756;52.346;13.622;2022-10-29T23:49:33;35.90;;;21.10;;
49858;SDS011;35756;52.346;13.622;2022-10-29T23:51:58;32.80;;;19.83;;
49858;SDS011;35756;52.346;13.622;2022-10-29T23:54:24;35.30;;;19.98;;
49858;SDS011;35756;52.346;13.622;2022-10-29T23:56:49;42.05;;;22.15;;
49858;SDS011;35756;52.346;13.622;2022-10-29T23:59:14;31.92;;;20.52;;
